createdAt,value
2022-08-20T00:00:17.744Z,1012.167964
2022-08-20T00:05:17.491Z,1012.108456
2022-08-20T00:10:17.481Z,1012.062260
2022-08-20T00:15:17.839Z,1012.046290
2022-08-20T00:20:17.485Z,1011.964558
2022-08-20T00:25:17.553Z,1011.899786
2022-08-20T00:30:17.850Z,1011.946508
2022-08-20T00:35:17.431Z,1011.943161
2022-08-20T00:40:22.470Z,1011.988269
2022-08-20T00:45:17.422Z,1012.001394
2022-08-20T00:50:17.555Z,1012.021877
2022-08-20T00:55:17.478Z,1012.052751
2022-08-20T01:00:17.399Z,1012.045571
2022-08-20T01:05:17.414Z,1012.080603
2022-08-20T01:10:19.269Z,1012.069569
2022-08-20T01:15:17.694Z,1012.054700
2022-08-20T01:20:17.386Z,1012.065430
2022-08-20T01:25:17.464Z,1012.084144
2022-08-20T01:30:17.560Z,1012.140761
2022-08-20T01:35:17.386Z,1012.162676
2022-08-20T01:40:17.979Z,1012.187792
2022-08-20T01:45:17.712Z,1012.165243
2022-08-20T01:50:17.514Z,1012.188598
2022-08-20T01:55:17.396Z,1012.222835
2022-08-20T02:00:20.324Z,1012.252280
2022-08-20T02:05:17.400Z,1012.279481
2022-08-20T02:10:17.433Z,1012.351793
2022-08-20T02:15:17.354Z,1012.346851
2022-08-20T02:20:17.525Z,1012.304332
2022-08-20T02:25:17.409Z,1012.305956
2022-08-20T02:30:27.464Z,1012.314295
2022-08-20T02:35:17.524Z,1012.265201
2022-08-20T02:40:17.556Z,1012.218017
2022-08-20T02:45:19.002Z,1012.302333
2022-08-20T02:50:17.540Z,1012.287963
2022-08-20T02:55:18.894Z,1012.176172
2022-08-20T03:00:17.371Z,1012.100533
2022-08-20T03:05:17.729Z,1012.149669
2022-08-20T03:10:17.487Z,1012.103777
2022-08-20T03:15:17.892Z,1012.093714
2022-08-20T03:20:17.357Z,1012.091158
2022-08-20T03:25:17.453Z,1012.080450
2022-08-20T03:30:17.522Z,1011.988476
2022-08-20T03:35:17.365Z,1012.010247
2022-08-20T03:40:17.463Z,1012.019692
2022-08-20T03:45:20.497Z,1012.012979
2022-08-20T03:50:23.009Z,1012.125430
2022-08-20T03:55:17.703Z,1012.190228
2022-08-20T04:00:17.345Z,1012.095391
2022-08-20T04:05:17.856Z,1012.162098
2022-08-20T04:10:17.710Z,1012.247537
2022-08-20T04:15:17.381Z,1012.255382
2022-08-20T04:20:17.376Z,1012.310719
2022-08-20T04:25:17.436Z,1012.433394
2022-08-20T04:30:17.373Z,1012.401195
2022-08-20T04:35:17.678Z,1012.431307
2022-08-20T04:40:17.366Z,1012.464418
2022-08-20T04:45:17.368Z,1012.527276
2022-08-20T04:50:17.299Z,1012.566146
2022-08-20T04:55:17.375Z,1012.522133
2022-08-20T05:00:17.381Z,1012.492062
2022-08-20T05:05:17.757Z,1012.529346
2022-08-20T05:10:17.326Z,1012.661629
2022-08-20T05:15:17.534Z,1012.693592
2022-08-20T05:20:17.377Z,1012.725425
2022-08-20T05:25:17.376Z,1012.753296
2022-08-20T05:30:17.519Z,1012.746729
2022-08-20T05:35:17.312Z,1012.798377
2022-08-20T05:40:17.404Z,1012.906024
2022-08-20T05:45:17.291Z,1012.846369
2022-08-20T05:50:23.280Z,1012.808163
2022-08-20T05:55:17.643Z,1012.783690
2022-08-20T06:00:17.380Z,1012.873352
2022-08-20T06:05:17.307Z,1012.911281
2022-08-20T06:10:17.607Z,1012.937001
2022-08-20T06:15:17.313Z,1012.922559
2022-08-20T06:20:17.672Z,1012.884453
2022-08-20T06:25:17.544Z,1012.924630
2022-08-20T06:30:17.734Z,1012.942243
2022-08-20T06:35:20.010Z,1013.010081
2022-08-20T06:40:17.505Z,1013.028119
2022-08-20T06:45:17.345Z,1013.073481
2022-08-20T06:50:17.295Z,1013.176928
2022-08-20T06:55:17.396Z,1013.311499
2022-08-20T07:00:17.284Z,1013.408877
2022-08-20T07:05:17.303Z,1013.405674
2022-08-20T07:10:17.452Z,1013.407114
2022-08-20T07:15:17.334Z,1013.383919
2022-08-20T07:20:17.409Z,1013.438462
2022-08-20T07:25:17.473Z,1013.469149
2022-08-20T07:30:17.256Z,1013.504789
2022-08-20T07:35:17.355Z,1013.551501
2022-08-20T07:40:18.243Z,1013.547775
2022-08-20T07:45:17.333Z,1013.603659
2022-08-20T07:50:17.288Z,1013.647019
2022-08-20T07:55:17.274Z,1013.656557
2022-08-20T08:00:17.334Z,1013.687733
2022-08-20T08:05:17.562Z,1013.716010
2022-08-20T08:10:17.704Z,1013.721570
2022-08-20T08:15:17.597Z,1013.696429
2022-08-20T08:20:17.659Z,1013.728550
2022-08-20T08:25:17.349Z,1013.728974
2022-08-20T08:30:17.400Z,1013.720152
2022-08-20T08:35:17.280Z,1013.750035
2022-08-20T08:40:17.414Z,1013.769050
2022-08-20T08:45:17.290Z,1013.886597
2022-08-20T08:50:24.928Z,1013.922908
2022-08-20T08:55:17.389Z,1013.832057
2022-08-20T09:00:17.347Z,1013.825658
2022-08-20T09:05:17.535Z,1013.942093
2022-08-20T09:10:17.377Z,1013.924179
2022-08-20T09:15:17.296Z,1013.842611
2022-08-20T09:20:17.491Z,1013.876999
2022-08-20T09:25:17.525Z,1013.881014
2022-08-20T09:30:17.304Z,1013.853648
2022-08-20T09:35:17.224Z,1013.886114
2022-08-20T09:40:21.274Z,1013.856846
2022-08-20T09:45:17.281Z,1013.794267
2022-08-20T09:50:17.472Z,1013.825200
2022-08-20T09:55:17.314Z,1013.797535
2022-08-20T10:00:17.291Z,1013.763492
2022-08-20T10:05:17.262Z,1013.775171
2022-08-20T10:10:17.513Z,1013.777403
2022-08-20T10:15:17.268Z,1013.796443
2022-08-20T10:20:17.651Z,1013.806528
2022-08-20T10:25:17.435Z,1013.858227
2022-08-20T10:30:17.877Z,1013.909378
2022-08-20T10:35:17.234Z,1013.938451
2022-08-20T10:40:17.354Z,1013.954444
2022-08-20T10:45:17.517Z,1014.026581
2022-08-20T10:50:17.211Z,1014.012343
2022-08-20T10:55:17.238Z,1013.998108
2022-08-20T11:00:17.225Z,1014.051681
2022-08-20T11:05:17.329Z,1014.065114
2022-08-20T11:10:17.390Z,1014.085741
2022-08-20T11:15:17.228Z,1014.066083
2022-08-20T11:20:17.294Z,1014.085126
2022-08-20T11:25:17.443Z,1014.188140
2022-08-20T11:30:17.232Z,1014.263842
2022-08-20T11:35:41.691Z,1014.262562
2022-08-20T11:40:17.292Z,1014.174131
2022-08-20T11:45:17.355Z,1014.148368
2022-08-20T11:50:17.647Z,1014.169163
2022-08-20T11:55:17.230Z,1014.308091
2022-08-20T12:00:17.569Z,1014.380064
2022-08-20T12:05:17.257Z,1014.347447
2022-08-20T12:10:17.354Z,1014.410313
2022-08-20T12:15:17.524Z,1014.425191
2022-08-20T12:20:17.518Z,1014.420580
2022-08-20T12:25:17.325Z,1014.418172
2022-08-20T12:30:17.186Z,1014.399655
2022-08-20T12:35:17.238Z,1014.373373
2022-08-20T12:40:17.322Z,1014.390953
2022-08-20T12:45:17.313Z,1014.379890
2022-08-20T12:50:17.201Z,1014.426106
2022-08-20T12:55:17.255Z,1014.460009
2022-08-20T13:00:17.194Z,1014.494072
2022-08-20T13:05:17.259Z,1014.457626
2022-08-20T13:10:17.236Z,1014.452357
2022-08-20T13:15:17.380Z,1014.423745
2022-08-20T13:20:17.482Z,1014.408231
2022-08-20T13:25:17.253Z,1014.383462
2022-08-20T13:30:17.426Z,1014.336587
2022-08-20T13:35:17.191Z,1014.309392
2022-08-20T13:40:17.313Z,1014.355464
2022-08-20T13:45:17.422Z,1014.349673
2022-08-20T13:50:17.245Z,1014.378106
2022-08-20T13:55:17.169Z,1014.375685
2022-08-20T14:00:17.218Z,1014.372802
2022-08-20T14:05:18.448Z,1014.385761
2022-08-20T14:10:17.425Z,1014.378569
2022-08-20T14:15:17.477Z,1014.426395
2022-08-20T14:20:17.516Z,1014.469897
2022-08-20T14:25:17.301Z,1014.417752
2022-08-20T14:30:17.162Z,1014.477086
2022-08-20T14:35:17.139Z,1014.435022
2022-08-20T14:40:17.313Z,1014.413107
2022-08-20T14:45:17.312Z,1014.421424
2022-08-20T14:50:17.175Z,1014.400473
2022-08-20T14:55:17.375Z,1014.317945
2022-08-20T15:00:17.155Z,1014.293315
2022-08-20T15:05:17.177Z,1014.256850
2022-08-20T15:10:17.149Z,1014.161688
2022-08-20T15:15:17.175Z,1014.131779
2022-08-20T15:20:20.311Z,1014.136098
2022-08-20T15:25:17.232Z,1014.171125
2022-08-20T15:30:17.371Z,1014.173522
2022-08-20T15:35:17.197Z,1014.239895
2022-08-20T15:40:17.238Z,1014.210306
2022-08-20T15:45:21.926Z,1014.262126
2022-08-20T15:50:17.167Z,1014.299551
2022-08-20T15:55:17.774Z,1014.345934
2022-08-20T16:00:17.244Z,1014.355212
2022-08-20T16:05:17.749Z,1014.325952
2022-08-20T16:10:17.179Z,1014.311246
2022-08-20T16:15:17.286Z,1014.415195
2022-08-20T16:20:17.356Z,1014.425916
2022-08-20T16:25:17.268Z,1014.422101
2022-08-20T16:30:20.757Z,1014.491176
2022-08-20T16:35:17.295Z,1014.557394
2022-08-20T16:40:17.344Z,1014.596577
2022-08-20T16:45:17.169Z,1014.600097
2022-08-20T16:50:17.179Z,1014.579298
2022-08-20T16:55:17.230Z,1014.629193
2022-08-20T17:00:17.306Z,1014.691561
2022-08-20T17:05:17.176Z,1014.687717
2022-08-20T17:10:17.189Z,1014.728020
2022-08-20T17:15:17.192Z,1014.792157
2022-08-20T17:20:19.991Z,1014.823666
2022-08-20T17:25:17.411Z,1014.868134
2022-08-20T17:30:19.998Z,1014.875174
2022-08-20T17:35:17.074Z,1014.882395
2022-08-20T17:40:17.178Z,1014.892621
2022-08-20T17:45:17.098Z,1014.918218
2022-08-20T17:50:17.159Z,1014.970551
2022-08-20T17:55:17.331Z,1014.956192
2022-08-20T18:00:17.163Z,1014.957030
2022-08-20T18:05:17.153Z,1014.961050
2022-08-20T18:10:17.147Z,1014.968417
2022-08-20T18:15:19.285Z,1015.046177
2022-08-20T18:20:17.166Z,1015.081258
2022-08-20T18:25:17.270Z,1015.093484
2022-08-20T18:30:17.137Z,1015.108424
2022-08-20T18:35:17.539Z,1015.189387
2022-08-20T18:40:17.684Z,1015.189401
2022-08-20T18:45:17.579Z,1015.201859
2022-08-20T18:50:17.410Z,1015.181100
2022-08-20T18:55:17.544Z,1015.172549
2022-08-20T19:00:17.473Z,1015.181540
2022-08-20T19:05:17.212Z,1015.243896
2022-08-20T19:10:27.611Z,1015.302995
2022-08-20T19:15:17.111Z,1015.375145
2022-08-20T19:20:17.257Z,1015.330196
2022-08-20T19:25:17.173Z,1015.300597
2022-08-20T19:30:17.285Z,1015.333384
2022-08-20T19:35:17.317Z,1015.369373
2022-08-20T19:40:17.214Z,1015.361381
2022-08-20T19:45:17.126Z,1015.312344
2022-08-20T19:50:17.254Z,1015.323673
2022-08-20T19:55:17.144Z,1015.297291
2022-08-20T20:00:17.296Z,1015.253326
2022-08-20T20:05:17.265Z,1015.218737
2022-08-20T20:10:17.284Z,1015.206174
2022-08-20T20:15:17.125Z,1015.218353
2022-08-20T20:20:17.060Z,1015.214390
2022-08-20T20:25:17.282Z,1015.224986
2022-08-20T20:30:17.095Z,1015.168714
2022-08-20T20:35:17.347Z,1015.183810
2022-08-20T20:40:19.364Z,1015.198080
2022-08-20T20:45:17.261Z,1015.187286
2022-08-20T20:50:17.355Z,1015.183959
2022-08-20T20:55:17.476Z,1015.195839
2022-08-20T21:00:17.345Z,1015.188215
2022-08-20T21:05:17.126Z,1015.178321
2022-08-20T21:10:17.109Z,1015.167961
2022-08-20T21:15:17.333Z,1015.149528
2022-08-20T21:20:17.058Z,1015.162951
2022-08-20T21:25:17.210Z,1015.113842
2022-08-20T21:30:17.105Z,1015.113497
2022-08-20T21:35:17.265Z,1015.106765
2022-08-20T21:40:18.231Z,1015.096546
2022-08-20T21:45:18.564Z,1015.032230
2022-08-20T21:50:18.821Z,1015.048532
2022-08-20T21:55:17.120Z,1015.046139
2022-08-20T22:00:17.393Z,1015.066132
2022-08-20T22:05:17.110Z,1015.027891
2022-08-20T22:10:17.157Z,1015.019759
2022-08-20T22:15:17.090Z,1014.966305
2022-08-20T22:20:17.138Z,1014.981317
2022-08-20T22:25:17.212Z,1014.989672
2022-08-20T22:30:17.139Z,1014.962709
2022-08-20T22:35:17.043Z,1014.934448
2022-08-20T22:40:17.493Z,1014.868781
2022-08-20T22:45:17.107Z,1014.882645
2022-08-20T22:50:17.487Z,1014.968660
2022-08-20T22:55:17.393Z,1014.934947
2022-08-20T23:00:17.103Z,1014.955180
2022-08-20T23:05:17.197Z,1014.961995
2022-08-20T23:10:17.107Z,1014.989268
2022-08-20T23:15:17.105Z,1014.994348
2022-08-20T23:20:17.062Z,1014.970967
2022-08-20T23:25:17.058Z,1014.934073
2022-08-20T23:30:17.084Z,1014.885828
2022-08-20T23:35:17.115Z,1014.875261
2022-08-20T23:40:17.161Z,1014.866432
2022-08-20T23:45:17.167Z,1014.854072
2022-08-20T23:50:17.101Z,1014.845713
2022-08-20T23:55:17.077Z,1014.868997
